Time;durP1;ratioP1;P1;durP2;ratioP2;P2;SDS_P1;SDS_P2;PMS_P1;PMS_P2;Temp;Humidity;BMP_temperature;BMP_pressure;BME280_temperature;BME280_humidity;BME280_pressure;Samples;Min_cycle;Max_cycle;Signal;HPM_P1;HPM_P2
2023/10/27 00:00:41;;;;;;;31.88;19.80;;;;;;;9.34;100.00;99288.84;5092774;28;20048;-76
2023/10/27 00:03:07;;;;;;;35.47;20.10;;;;;;;9.36;100.00;99294.44;5093051;28;20132;-76
2023/10/27 00:05:34;;;;;;;34.58;19.92;;;;;;;9.36;100.00;99291.78;5092824;28;20040;-76
2023/10/27 00:08:00;;;;;;;31.63;18.55;;;;;;;9.38;100.00;99292.03;5092685;28;20071;-76
2023/10/27 00:10:28;;;;;;;32.67;19.15;;;;;;;9.38;100.00;99281.41;5090760;28;20052;-76
2023/10/27 00:12:54;;;;;;;33.38;19.60;;;;;;;9.38;100.00;99283.34;5091029;28;20057;-76
2023/10/27 00:15:22;;;;;;;33.80;19.10;;;;;;;9.39;100.00;99290.13;5092705;28;20489;-77
2023/10/27 00:17:48;;;;;;;30.85;19.77;;;;;;;9.36;100.00;99292.50;5092759;28;20041;-76
2023/10/27 00:20:15;;;;;;;31.80;19.00;;;;;;;9.38;100.00;99292.03;5090731;28;20049;-76
2023/10/27 00:22:42;;;;;;;34.08;20.73;;;;;;;9.38;100.00;99286.72;5092526;28;20099;-77
2023/10/27 00:25:08;;;;;;;35.25;20.08;;;;;;;9.38;100.00;99286.00;5090477;28;20045;-77
2023/10/27 00:27:35;;;;;;;32.50;20.45;;;;;;;9.38;100.00;99286.72;5092610;28;20067;-76
2023/10/27 00:30:02;;;;;;;38.22;20.30;;;;;;;9.37;100.00;99274.66;5091239;28;20478;-77
2023/10/27 00:32:29;;;;;;;32.00;19.65;;;;;;;9.38;100.00;99278.03;5092606;28;20563;-76
2023/10/27 00:34:55;;;;;;;37.30;20.35;;;;;;;9.38;100.00;99281.41;5094283;28;20040;-76
2023/10/27 00:37:22;;;;;;;32.15;19.38;;;;;;;9.39;100.00;99277.56;5094606;28;20456;-76
2023/10/27 00:39:49;;;;;;;35.03;19.77;;;;;;;9.40;100.00;99279.03;5094271;28;20056;-76
2023/10/27 00:42:16;;;;;;;31.42;18.85;;;;;;;9.41;100.00;99267.22;5094622;28;20535;-77
2023/10/27 00:44:43;;;;;;;30.98;19.85;;;;;;;9.42;100.00;99270.59;5096057;28;20053;-77
2023/10/27 00:47:10;;;;;;;32.15;19.25;;;;;;;9.42;100.00;99268.66;5077643;28;20069;-76
2023/10/27 00:49:37;;;;;;;33.67;19.48;;;;;;;9.45;100.00;99265.09;5094252;28;20053;-76
2023/10/27 00:52:04;;;;;;;30.58;19.65;;;;;;;9.44;100.00;99266.28;5094388;28;20051;-77
2023/10/27 00:54:30;;;;;;;36.13;20.35;;;;;;;9.44;100.00;99265.56;5093763;28;20122;-76
2023/10/27 00:56:58;;;;;;;35.28;18.77;;;;;;;9.42;100.00;99265.28;5094137;28;20080;-76
2023/10/27 00:59:25;;;;;;;35.13;20.05;;;;;;;9.43;100.00;99267.47;5095489;28;20047;-76
2023/10/27 01:01:51;;;;;;;35.38;20.10;;;;;;;9.45;100.00;99269.66;5095809;28;20048;-76
2023/10/27 01:04:18;;;;;;;31.15;19.25;;;;;;;9.45;100.00;99267.75;5095929;28;20040;-76
2023/10/27 01:06:45;;;;;;;34.63;19.10;;;;;;;9.45;100.00;99262.44;5095746;28;20055;-77
2023/10/27 01:09:13;;;;;;;29.88;18.92;;;;;;;9.46;100.00;99258.56;5095160;28;20102;-76
2023/10/27 01:11:40;;;;;;;33.80;19.98;;;;;;;9.47;100.00;99254.00;5095550;28;20472;-76
2023/10/27 01:14:06;;;;;;;34.20;20.58;;;;;;;9.47;100.00;99254.72;5095410;28;20044;-76
2023/10/27 01:16:33;;;;;;;34.15;19.95;;;;;;;9.48;100.00;99253.53;5095076;28;20047;-76
2023/10/27 01:18:59;;;;;;;31.38;19.50;;;;;;;9.49;100.00;99260.31;5093642;28;20053;-77
2023/10/27 01:21:26;;;;;;;35.28;20.15;;;;;;;9.49;100.00;99247.03;5095369;28;20040;-76
2023/10/27 01:23:53;;;;;;;31.08;19.95;;;;;;;9.50;100.00;99247.75;5093142;28;20422;-76
2023/10/27 01:26:19;;;;;;;32.13;20.23;;;;;;;9.49;100.00;99247.03;5095290;28;20095;-77
2023/10/27 01:28:46;;;;;;;31.33;19.38;;;;;;;9.51;100.00;99241.97;5094103;28;20051;-76
2023/10/27 01:31:12;;;;;;;37.00;20.80;;;;;;;9.51;100.00;99247.28;5093516;28;20449;-76
2023/10/27 01:33:39;;;;;;;27.88;18.33;;;;;;;9.51;100.00;99247.28;5095204;28;20044;-76
2023/10/27 01:36:06;;;;;;;34.00;20.55;;;;;;;9.52;100.00;99246.09;5094994;28;20151;-76
2023/10/27 01:38:32;;;;;;;33.45;20.35;;;;;;;9.52;100.00;99240.78;5093144;28;20486;-76
2023/10/27 01:40:59;;;;;;;34.00;21.63;;;;;;;9.55;100.00;99239.13;5093505;28;20501;-76
2023/10/27 01:43:26;;;;;;;33.10;19.27;;;;;;;9.55;100.00;99236.47;5093387;28;20232;-76
2023/10/27 01:45:53;;;;;;;37.67;19.80;;;;;;;9.55;100.00;99239.13;5093807;28;20090;-76
2023/10/27 01:48:19;;;;;;;29.88;19.23;;;;;;;9.56;100.00;99237.91;5093668;28;20114;-76
2023/10/27 01:50:48;;;;;;;34.03;19.70;;;;;;;9.57;100.00;99237.44;5093458;28;20087;-76
2023/10/27 01:53:16;;;;;;;33.13;19.73;;;;;;;9.58;100.00;99241.56;5094281;28;20527;-76
2023/10/27 01:55:42;;;;;;;28.50;18.52;;;;;;;9.60;100.00;99238.41;5093131;28;20059;-76
2023/10/27 01:58:09;;;;;;;32.50;19.27;;;;;;;9.60;100.00;99236.47;5093125;28;20488;-76
2023/10/27 02:00:36;;;;;;;30.17;19.13;;;;;;;9.59;100.00;99237.72;5093205;28;20136;-76
2023/10/27 02:03:02;;;;;;;28.63;18.73;;;;;;;9.59;100.00;99235.06;5093356;28;20049;-76
2023/10/27 02:05:29;;;;;;;33.40;19.90;;;;;;;9.61;100.00;99232.63;5092339;28;20051;-76
2023/10/27 02:07:58;;;;;;;33.13;19.58;;;;;;;9.61;100.00;99227.31;5093119;28;20059;-76
2023/10/27 02:10:25;;;;;;;33.28;19.02;;;;;;;9.62;100.00;99236.03;5092773;28;20053;-76
2023/10/27 02:12:51;;;;;;;33.53;19.30;;;;;;;9.63;100.00;99229.50;5093129;28;20855;-76
2023/10/27 02:15:18;;;;;;;29.83;18.48;;;;;;;9.64;100.00;99218.41;5093535;28;20049;-76
2023/10/27 02:17:45;;;;;;;31.27;19.40;;;;;;;9.66;100.00;99221.34;5094699;28;20032;-76
2023/10/27 02:20:11;;;;;;;31.38;18.80;;;;;;;9.66;100.00;99223.25;5094043;28;20045;-76
2023/10/27 02:22:40;;;;;;;30.90;18.38;;;;;;;9.68;100.00;99220.88;5094513;28;20152;-76
2023/10/27 02:25:07;;;;;;;28.55;18.42;;;;;;;9.69;100.00;99224.97;5094089;28;20067;-77
2023/10/27 02:27:38;;;;;;;31.38;18.13;;;;;;;9.69;100.00;99227.63;5094778;28;20106;-77
2023/10/27 02:30:06;;;;;;;26.65;17.05;;;;;;;9.69;100.00;99220.41;5095162;28;20489;-76
2023/10/27 02:32:33;;;;;;;25.02;16.70;;;;;;;9.70;100.00;99221.13;5094750;28;20054;-76
2023/10/27 02:35:00;;;;;;;26.98;17.02;;;;;;;9.69;100.00;99219.66;5093643;28;20067;-76
2023/10/27 02:37:26;;;;;;;27.25;16.58;;;;;;;9.71;100.00;99222.59;5094127;28;20041;-76
2023/10/27 02:39:53;;;;;;;26.38;16.77;;;;;;;9.71;100.00;99219.94;5092513;28;20139;-76
2023/10/27 02:42:20;;;;;;;28.67;16.73;;;;;;;9.73;100.00;99225.50;5075810;28;20049;-76
2023/10/27 02:44:47;;;;;;;27.83;16.70;;;;;;;9.73;100.00;99219.47;5092563;28;20040;-77
2023/10/27 02:47:13;;;;;;;29.52;16.23;;;;;;;9.74;100.00;99216.34;5092615;28;20048;-76
2023/10/27 02:49:40;;;;;;;26.48;16.05;;;;;;;9.75;100.00;99215.13;5092886;28;20044;-76
2023/10/27 02:52:06;;;;;;;24.92;15.88;;;;;;;9.77;100.00;99219.97;5093965;28;20047;-76
2023/10/27 02:54:33;;;;;;;25.17;16.45;;;;;;;9.78;100.00;99221.44;5091165;28;20182;-76
2023/10/27 02:57:00;;;;;;;25.45;16.05;;;;;;;9.77;100.00;99218.06;5093444;28;20099;-77
2023/10/27 02:59:26;;;;;;;26.48;16.45;;;;;;;9.78;100.00;99216.84;5093817;28;20045;-76
2023/10/27 03:01:54;;;;;;;24.40;16.02;;;;;;;9.79;100.00;99220.97;5093839;28;20479;-76
2023/10/27 03:04:20;;;;;;;25.60;16.25;;;;;;;9.81;100.00;99215.19;5091593;28;20516;-76
2023/10/27 03:06:47;;;;;;;24.48;15.05;;;;;;;9.82;100.00;99214.00;5075335;28;20049;-76
2023/10/27 03:09:14;;;;;;;22.90;15.25;;;;;;;9.81;100.00;99223.88;5093491;28;20047;-76
2023/10/27 03:11:41;;;;;;;22.00;15.70;;;;;;;9.81;100.00;99213.25;5093384;28;20083;-76
2023/10/27 03:14:08;;;;;;;22.90;15.60;;;;;;;9.83;100.00;99223.41;5093938;28;20064;-76
2023/10/27 03:16:35;;;;;;;21.65;14.80;;;;;;;9.82;100.00;99217.38;5093096;28;20044;-76
2023/10/27 03:19:01;;;;;;;23.92;14.40;;;;;;;9.83;100.00;99213.53;5091632;28;20048;-77
2023/10/27 03:21:28;;;;;;;23.77;15.43;;;;;;;9.83;100.00;99210.88;5091681;28;20931;-76
2023/10/27 03:23:55;;;;;;;23.13;15.13;;;;;;;9.83;100.00;99207.47;5093725;28;20494;-76
2023/10/27 03:26:21;;;;;;;27.77;15.32;;;;;;;9.83;100.00;99204.81;5075117;28;20088;-76
2023/10/27 03:28:48;;;;;;;25.48;15.65;;;;;;;9.83;100.00;99210.13;5091904;28;20049;-76
2023/10/27 03:31:15;;;;;;;23.02;14.98;;;;;;;9.83;100.00;99202.16;5092239;28;20044;-76
2023/10/27 03:33:41;;;;;;;22.17;15.65;;;;;;;9.83;100.00;99200.22;5090977;28;20054;-76
2023/10/27 03:36:10;;;;;;;23.10;14.32;;;;;;;9.83;100.00;99202.16;5093160;28;20118;-76
2023/10/27 03:38:37;;;;;;;21.92;13.68;;;;;;;9.83;100.00;99196.84;5092762;28;20073;-76
2023/10/27 03:41:04;;;;;;;19.83;13.77;;;;;;;9.82;100.00;99196.13;5093081;28;20064;-76
2023/10/27 03:43:31;;;;;;;24.05;14.05;;;;;;;9.83;100.00;99197.56;5093864;28;20048;-76
2023/10/27 03:45:59;;;;;;;22.33;13.88;;;;;;;9.83;100.00;99196.84;5093889;28;20539;-76
2023/10/27 03:48:26;;;;;;;18.95;12.70;;;;;;;9.83;100.00;99202.16;5092040;28;20522;-76
2023/10/27 03:50:53;;;;;;;24.30;13.43;;;;;;;9.82;100.00;99190.06;5092564;28;20055;-76
2023/10/27 03:53:19;;;;;;;17.45;12.73;;;;;;;9.81;100.00;99193.94;5093243;28;20131;-76
2023/10/27 03:55:53;;;;;;;17.15;12.20;;;;;;;9.82;100.00;99190.81;5092122;28;20049;-76
2023/10/27 03:58:20;;;;;;;17.40;12.02;;;;;;;9.81;100.00;99194.66;5093278;28;20056;-76
2023/10/27 04:00:55;;;;;;;20.55;12.23;;;;;;;9.82;100.00;99195.38;5093054;28;20078;-75
2023/10/27 04:03:23;;;;;;;18.38;12.32;;;;;;;9.80;100.00;99190.53;5091589;28;20458;-76
2023/10/27 04:05:49;;;;;;;17.77;11.82;;;;;;;9.81;100.00;99196.59;5090954;28;20049;-76
2023/10/27 04:08:16;;;;;;;16.30;11.10;;;;;;;9.81;100.00;99193.94;5091859;28;20044;-76
2023/10/27 04:10:42;;;;;;;15.85;11.00;;;;;;;9.81;100.00;99189.34;5092583;28;20053;-75
2023/10/27 04:13:09;;;;;;;13.68;9.90;;;;;;;9.82;100.00;99190.06;5092883;28;20476;-76
2023/10/27 04:15:36;;;;;;;16.15;10.18;;;;;;;9.81;100.00;99193.94;5092200;28;20128;-75
2023/10/27 04:18:02;;;;;;;17.42;11.30;;;;;;;9.81;100.00;99188.63;5092413;28;20044;-76
2023/10/27 04:20:29;;;;;;;16.27;10.57;;;;;;;9.80;100.00;99192.47;5091058;28;20468;-76
2023/10/27 04:22:56;;;;;;;16.20;10.60;;;;;;;9.81;100.00;99188.63;5074214;28;20123;-76
2023/10/27 04:25:23;;;;;;;14.20;9.70;;;;;;;9.81;100.00;99191.28;5092411;28;20442;-77
2023/10/27 04:27:50;;;;;;;16.23;10.65;;;;;;;9.82;100.00;99192.72;5092316;28;20048;-77
2023/10/27 04:30:17;;;;;;;16.25;9.65;;;;;;;9.82;100.00;99190.06;5091260;28;20124;-76
2023/10/27 04:32:45;;;;;;;14.20;9.95;;;;;;;9.82;100.00;99187.41;5091927;28;20040;-76
2023/10/27 04:35:13;;;;;;;16.58;9.52;;;;;;;9.82;100.00;99193.47;5092607;28;20045;-76
2023/10/27 04:37:39;;;;;;;12.55;8.88;;;;;;;9.82;100.00;99196.13;5092073;28;20110;-76
2023/10/27 04:40:07;;;;;;;15.05;9.70;;;;;;;9.82;100.00;99192.72;5092782;28;20169;-76
2023/10/27 04:42:34;;;;;;;13.60;9.80;;;;;;;9.83;100.00;99191.53;5092024;28;20041;-76
2023/10/27 04:45:02;;;;;;;16.20;9.82;;;;;;;9.83;100.00;99194.19;5091701;28;20123;-77
2023/10/27 04:47:28;;;;;;;15.77;9.30;;;;;;;9.84;100.00;99193.00;5092338;28;20534;-76
2023/10/27 04:49:55;;;;;;;16.77;9.52;;;;;;;9.83;100.00;99194.19;5092204;28;20123;-77
2023/10/27 04:52:21;;;;;;;14.43;9.88;;;;;;;9.84;100.00;99185.75;5092621;28;20486;-77
2023/10/27 04:54:48;;;;;;;15.40;10.15;;;;;;;9.83;100.00;99180.91;5090591;28;20048;-77
2023/10/27 04:57:14;;;;;;;16.48;9.57;;;;;;;9.83;100.00;99188.88;5090777;28;20084;-78
2023/10/27 04:59:41;;;;;;;13.38;9.50;;;;;;;9.83;100.00;99184.28;5072888;28;20957;-76
2023/10/27 05:02:08;;;;;;;14.27;9.65;;;;;;;9.82;100.00;99185.47;5092571;28;20099;-76
2023/10/27 05:04:34;;;;;;;16.35;9.32;;;;;;;9.82;100.00;99184.75;5090181;28;20500;-76
2023/10/27 05:07:03;;;;;;;13.73;8.93;;;;;;;9.80;100.00;99174.59;5092244;28;20045;-77
2023/10/27 05:09:29;;;;;;;14.68;9.18;;;;;;;9.80;100.00;99181.84;5091852;28;20123;-77
2023/10/27 05:11:56;;;;;;;13.20;8.50;;;;;;;9.81;100.00;99180.63;5091631;28;20516;-76
2023/10/27 05:14:23;;;;;;;15.82;8.98;;;;;;;9.80;100.00;99174.59;5091522;28;20042;-76
2023/10/27 05:16:50;;;;;;;11.60;8.65;;;;;;;9.80;100.00;99177.25;5091459;28;20079;-76
2023/10/27 05:19:16;;;;;;;11.15;8.57;;;;;;;9.79;100.00;99180.38;5074761;28;20052;-77
2023/10/27 05:21:43;;;;;;;10.40;7.95;;;;;;;9.79;100.00;99180.38;5076784;28;20203;-77
2023/10/27 05:24:11;;;;;;;9.90;7.82;;;;;;;9.79;100.00;99177.72;5094077;28;20051;-77
2023/10/27 05:26:37;;;;;;;11.55;7.93;;;;;;;9.79;100.00;99175.78;5093245;28;20049;-77
2023/10/27 05:29:04;;;;;;;11.65;7.88;;;;;;;9.80;100.00;99181.84;5095025;28;20066;-77
2023/10/27 05:31:30;;;;;;;10.40;7.18;;;;;;;9.79;100.00;99173.13;5094037;28;20048;-77
2023/10/27 05:33:58;;;;;;;10.07;7.65;;;;;;;9.78;100.00;99173.59;5095464;28;20048;-76
2023/10/27 05:36:24;;;;;;;10.25;7.05;;;;;;;9.78;100.00;99173.59;5094054;28;20047;-76
2023/10/27 05:38:51;;;;;;;11.38;6.97;;;;;;;9.78;100.00;99174.34;5094754;28;20135;-77
2023/10/27 05:41:18;;;;;;;10.82;8.05;;;;;;;9.78;100.00;99177.00;5093828;28;20132;-77
2023/10/27 05:43:44;;;;;;;9.85;7.75;;;;;;;9.79;100.00;99180.38;5094140;28;20573;-77
2023/10/27 05:46:13;;;;;;;11.70;8.05;;;;;;;9.79;100.00;99175.78;5094219;28;20136;-77
2023/10/27 05:48:40;;;;;;;10.75;7.63;;;;;;;9.79;100.00;99178.44;5094551;28;20120;-77
2023/10/27 05:51:06;;;;;;;9.98;7.90;;;;;;;9.79;100.00;99180.38;5093287;28;20053;-77
2023/10/27 05:53:33;;;;;;;11.43;8.27;;;;;;;9.81;100.00;99178.72;5093203;28;20044;-77
2023/10/27 05:55:59;;;;;;;10.82;8.27;;;;;;;9.81;100.00;99176.06;5092765;28;20056;-76
2023/10/27 05:58:32;;;;;;;10.23;7.50;;;;;;;9.81;100.00;99173.41;5094438;28;20041;-76
2023/10/27 06:01:00;;;;;;;7.90;6.95;;;;;;;9.81;100.00;99176.06;5093517;28;20052;-75
2023/10/27 06:03:26;;;;;;;10.45;7.35;;;;;;;9.81;100.00;99172.66;5094670;28;20483;-75
2023/10/27 06:05:53;;;;;;;8.63;6.78;;;;;;;9.80;100.00;99179.19;5094639;28;20041;-75
2023/10/27 06:08:20;;;;;;;8.13;6.65;;;;;;;9.80;100.00;99173.88;5094683;28;20048;-75
2023/10/27 06:10:47;;;;;;;8.95;6.93;;;;;;;9.81;100.00;99172.66;5094237;28;20056;-76
2023/10/27 06:13:14;;;;;;;9.23;7.40;;;;;;;9.81;100.00;99177.97;5094325;28;20051;-75
2023/10/27 06:15:41;;;;;;;10.45;6.63;;;;;;;9.82;100.00;99179.44;5093939;28;20040;-75
2023/10/27 06:18:11;;;;;;;8.40;6.68;;;;;;;9.83;100.00;99178.25;5093682;28;20054;-77
2023/10/27 06:20:37;;;;;;;7.28;6.57;;;;;;;9.82;100.00;99180.16;5093676;28;20040;-76
2023/10/27 06:23:04;;;;;;;10.10;6.80;;;;;;;9.81;100.00;99184.03;5093340;28;20577;-76
2023/10/27 06:25:31;;;;;;;7.72;6.65;;;;;;;9.82;100.00;99182.81;5092812;28;20525;-77
2023/10/27 06:27:57;;;;;;;7.10;6.40;;;;;;;9.84;100.00;99187.69;5093054;28;20045;-76
2023/10/27 06:30:24;;;;;;;6.93;6.15;;;;;;;9.81;100.00;99184.03;5092581;28;20044;-77
2023/10/27 06:32:51;;;;;;;8.52;6.57;;;;;;;9.81;100.00;99181.38;5092452;28;20478;-76
2023/10/27 06:35:17;;;;;;;6.85;6.18;;;;;;;9.82;100.00;99187.41;5091642;28;20521;-78
2023/10/27 06:37:44;;;;;;;7.20;6.18;;;;;;;9.81;100.00;99184.03;5092940;28;20044;-77
2023/10/27 06:40:11;;;;;;;6.82;5.78;;;;;;;9.82;100.00;99188.16;5092301;28;20446;-78
2023/10/27 06:42:38;;;;;;;10.48;6.75;;;;;;;9.82;100.00;99180.16;5074008;28;20040;-77
2023/10/27 06:45:05;;;;;;;9.23;6.50;;;;;;;9.83;100.00;99183.56;5093896;28;20044;-77
2023/10/27 06:47:31;;;;;;;8.40;6.05;;;;;;;9.84;100.00;99185.75;5093588;28;20048;-76
2023/10/27 06:50:01;;;;;;;6.50;5.47;;;;;;;9.84;100.00;99188.41;5093378;28;20071;-76
2023/10/27 06:52:27;;;;;;;7.55;5.57;;;;;;;9.85;100.00;99175.84;5091803;28;20578;-77
2023/10/27 06:54:54;;;;;;;5.82;5.20;;;;;;;9.86;100.00;99179.97;5092891;28;20044;-76
2023/10/27 06:57:20;;;;;;;10.60;6.15;;;;;;;9.86;100.00;99187.94;5092668;28;20037;-78
2023/10/27 06:59:47;;;;;;;6.85;5.68;;;;;;;9.86;100.00;99182.63;5092726;28;20098;-77
2023/10/27 07:02:14;;;;;;;7.32;5.72;;;;;;;9.87;100.00;99186.72;5093475;28;20045;-78
2023/10/27 07:04:41;;;;;;;5.60;5.03;;;;;;;9.86;100.00;99186.00;5092543;28;20068;-77
2023/10/27 07:07:07;;;;;;;5.60;5.07;;;;;;;9.87;100.00;99181.41;5093350;28;20048;-77
2023/10/27 07:09:52;;;;;;;5.32;4.78;;;;;;;9.88;100.00;99193.50;5092418;28;20131;-77
2023/10/27 07:12:19;;;;;;;6.68;4.95;;;;;;;9.88;100.00;99188.19;5091688;28;20054;-76
2023/10/27 07:14:45;;;;;;;9.60;4.68;;;;;;;9.88;100.00;99188.19;5092359;28;20510;-76
2023/10/27 07:17:12;;;;;;;6.57;4.68;;;;;;;9.86;100.00;99183.34;5093164;27;20045;-77
2023/10/27 07:19:39;;;;;;;5.90;4.93;;;;;;;9.91;100.00;99195.22;5092610;28;20041;-76
2023/10/27 07:22:08;;;;;;;4.80;4.40;;;;;;;9.90;100.00;99185.78;5092571;28;20115;-76
2023/10/27 07:24:35;;;;;;;5.32;4.63;;;;;;;9.90;100.00;99188.44;5090677;28;20122;-77
2023/10/27 07:27:01;;;;;;;4.38;3.97;;;;;;;9.92;100.00;99192.09;5092448;28;20476;-77
2023/10/27 07:29:28;;;;;;;5.05;4.55;;;;;;;9.94;100.00;99195.00;5092121;28;20073;-75
2023/10/27 07:31:55;;;;;;;4.53;4.13;;;;;;;9.95;100.00;99199.13;5091642;28;20504;-76
2023/10/27 07:34:21;;;;;;;5.05;4.65;;;;;;;9.97;100.00;99194.06;5091705;28;20458;-75
2023/10/27 07:36:50;;;;;;;4.45;4.05;;;;;;;9.98;100.00;99197.47;5091486;28;20075;-76
2023/10/27 07:39:17;;;;;;;4.40;4.00;;;;;;;9.99;100.00;99198.91;5090914;28;20120;-75
2023/10/27 07:41:44;;;;;;;4.30;3.95;;;;;;;10.00;100.00;99198.41;5092232;28;20045;-76
2023/10/27 07:44:10;;;;;;;4.47;3.97;;;;;;;10.04;100.00;99200.88;5091794;28;20481;-76
2023/10/27 07:46:37;;;;;;;4.88;4.32;;;;;;;10.08;100.00;99200.66;5105296;28;20078;-76
2023/10/27 07:49:04;;;;;;;5.00;4.57;;;;;;;10.08;100.00;99204.03;5113012;27;20092;-76
2023/10/27 07:51:31;;;;;;;7.72;4.18;;;;;;;10.10;100.00;99204.31;5112031;27;20044;-76
2023/10/27 07:53:58;;;;;;;4.07;3.78;;;;;;;10.12;100.00;99207.22;5112053;27;20051;-77
2023/10/27 07:56:24;;;;;;;4.53;4.15;;;;;;;10.14;100.00;99204.81;5112036;27;20564;-76
2023/10/27 07:58:51;;;;;;;5.15;4.65;;;;;;;10.17;100.00;99209.19;5093697;28;20078;-76
2023/10/27 08:01:18;;;;;;;5.28;4.07;;;;;;;10.19;100.00;99206.81;5112500;27;20416;-76
2023/10/27 08:03:46;;;;;;;6.93;4.43;;;;;;;10.21;100.00;99212.41;5110285;28;20540;-76
2023/10/27 08:06:13;;;;;;;4.78;4.43;;;;;;;10.22;100.00;99210.47;5112464;27;20588;-76
2023/10/27 08:08:40;;;;;;;5.15;4.65;;;;;;;10.22;100.00;99213.13;5111675;27;20093;-76
2023/10/27 08:11:07;;;;;;;5.80;4.22;;;;;;;10.23;100.00;99217.25;5111647;27;20048;-76
2023/10/27 08:13:33;;;;;;;5.80;4.15;;;;;;;10.24;100.00;99214.09;5111932;27;20554;-76
2023/10/27 08:16:02;;;;;;;6.40;4.10;;;;;;;10.24;100.00;99210.72;5112135;27;20051;-77
2023/10/27 08:18:28;;;;;;;4.22;3.92;;;;;;;10.24;100.00;99208.78;5112648;28;20511;-77
2023/10/27 08:20:56;;;;;;;4.82;4.32;;;;;;;10.25;100.00;99212.19;5112007;27;20075;-77
2023/10/27 08:23:23;;;;;;;5.95;4.07;;;;;;;10.27;100.00;99209.78;5111889;28;20040;-77
2023/10/27 08:25:51;;;;;;;9.02;4.30;;;;;;;10.29;100.00;99215.34;5110374;28;20036;-81
2023/10/27 08:28:18;;;;;;;5.22;4.20;;;;;;;10.31;100.00;99215.59;5111070;28;20629;-80
2023/10/27 08:30:45;;;;;;;4.35;3.95;;;;;;;10.31;100.00;99221.66;5092910;28;20425;-80
2023/10/27 08:33:14;;;;;;;4.90;4.50;;;;;;;10.32;100.00;99225.78;5110588;28;20458;-78
2023/10/27 08:35:41;;;;;;;4.45;4.15;;;;;;;10.33;100.00;99224.56;5111556;27;20686;-78
2023/10/27 08:38:08;;;;;;;4.75;4.35;;;;;;;10.33;100.00;99224.56;5110139;28;20574;-78
2023/10/27 08:40:36;;;;;;;4.60;3.83;;;;;;;10.35;100.00;99229.41;5093083;28;20048;-78
2023/10/27 08:43:03;;;;;;;4.22;3.92;;;;;;;10.38;100.00;99222.44;5110740;28;20457;-78
2023/10/27 08:45:32;;;;;;;4.63;4.28;;;;;;;10.37;100.00;99224.34;5110263;28;20416;-78
2023/10/27 08:48:00;;;;;;;5.05;4.00;;;;;;;10.37;100.00;99227.03;5112197;27;20529;-78
2023/10/27 08:50:29;;;;;;;4.78;4.38;;;;;;;10.38;100.00;99223.16;5101165;27;20109;-79
2023/10/27 08:52:56;;;;;;;6.03;4.85;;;;;;;10.40;100.00;99228.69;5088849;28;20410;-81
2023/10/27 08:55:25;;;;;;;4.72;4.32;;;;;;;10.43;100.00;99230.41;5094670;28;20048;-81
2023/10/27 08:57:54;;;;;;;4.95;4.55;;;;;;;10.44;100.00;99229.22;5093451;28;20537;-80
2023/10/27 09:00:21;;;;;;;4.70;4.30;;;;;;;10.47;100.00;99228.28;5095105;28;20044;-77
2023/10/27 09:02:48;;;;;;;4.78;4.38;;;;;;;10.47;100.00;99233.59;5092839;28;20689;-77
2023/10/27 09:05:15;;;;;;;4.60;4.20;;;;;;;10.44;100.00;99225.81;5094662;27;20098;-77
2023/10/27 09:07:42;;;;;;;4.20;3.90;;;;;;;10.47;100.00;99235.53;5092304;28;20049;-77
2023/10/27 09:10:09;;;;;;;3.90;3.67;;;;;;;10.50;100.00;99237.25;5095011;28;20055;-77
2023/10/27 09:12:39;;;;;;;4.35;3.95;;;;;;;10.50;100.00;99237.25;5094239;28;20498;-77
2023/10/27 09:15:07;;;;;;;4.15;3.85;;;;;;;10.52;100.00;99237.50;5093460;28;20487;-77
2023/10/27 09:17:56;;;;;;;4.30;3.90;;;;;;;10.54;100.00;99245.72;5093080;28;20055;-76
2023/10/27 09:20:24;;;;;;;3.50;3.20;;;;;;;10.55;100.00;99239.94;5092943;28;20578;-76
2023/10/27 09:23:04;;;;;;;3.80;3.45;;;;;;;10.57;100.00;99242.84;5093949;28;20040;-75
2023/10/27 09:25:32;;;;;;;3.85;3.55;;;;;;;10.57;100.00;99247.44;5094509;28;20041;-80
2023/10/27 09:28:01;;;;;;;4.00;3.70;;;;;;;10.61;100.00;99250.63;5093707;28;20044;-81
2023/10/27 09:30:34;;;;;;;3.97;3.67;;;;;;;10.63;100.00;99248.22;5093542;28;20509;-76
2023/10/27 09:33:16;;;;;;;4.60;3.60;;;;;;;10.68;100.00;99244.84;5093053;28;20048;-77
2023/10/27 09:35:46;;;;;;;4.05;3.53;;;;;;;10.73;100.00;99249.50;5093951;28;20048;-76
2023/10/27 09:38:14;;;;;;;4.10;3.75;;;;;;;10.74;100.00;99248.28;5074326;28;20048;-76
2023/10/27 09:40:43;;;;;;;3.83;3.53;;;;;;;10.80;100.00;99250.94;5073302;28;20040;-76
2023/10/27 09:43:19;;;;;;;3.80;3.50;;;;;;;10.82;100.00;99249.28;5092579;28;20116;-76
2023/10/27 09:45:50;;;;;;;4.05;3.70;;;;;;;10.83;100.00;99250.72;5092502;28;20044;-76
2023/10/27 09:48:23;;;;;;;3.73;3.53;;;;;;;10.86;100.00;99252.44;5094675;28;20033;-76
2023/10/27 09:50:58;;;;;;;4.03;3.72;;;;;;;10.88;100.00;99257.28;5093500;28;20271;-77
2023/10/27 09:53:28;;;;;;;3.70;3.50;;;;;;;10.89;100.00;99248.09;5094169;28;20055;-76
2023/10/27 09:55:58;;;;;;;3.25;3.05;;;;;;;10.87;100.00;99259.22;5093393;28;20056;-77
2023/10/27 09:58:33;;;;;;;3.45;3.17;;;;;;;10.91;100.00;99253.69;5094347;28;20493;-80
2023/10/27 10:01:01;;;;;;;3.55;3.35;;;;;;;10.95;100.00;99254.19;5094569;28;20524;-80
2023/10/27 10:03:28;;;;;;;3.70;3.50;;;;;;;10.97;100.00;99251.78;5094202;28;20045;-80
2023/10/27 10:06:11;;;;;;;3.17;2.97;;;;;;;11.02;100.00;99256.41;5092304;28;20041;-80
2023/10/27 10:08:43;;;;;;;2.92;2.72;;;;;;;11.04;100.00;99259.31;5104762;27;20049;-82
2023/10/27 10:11:16;;;;;;;3.40;3.15;;;;;;;11.03;100.00;99258.59;5094332;28;20051;-80
2023/10/27 10:13:44;;;;;;;4.30;3.08;;;;;;;11.03;100.00;99263.19;5093875;28;20041;-81
2023/10/27 10:16:12;;;;;;;3.33;3.13;;;;;;;11.08;100.00;99262.47;5093821;28;20547;-81
2023/10/27 10:18:48;;;;;;;3.63;3.33;;;;;;;11.11;100.00;99264.19;5094340;28;20036;-81
2023/10/27 10:21:31;;;;;;;3.40;3.20;;;;;;;11.13;100.00;99261.06;5094853;28;20467;-80
2023/10/27 10:23:58;;;;;;;3.60;3.30;;;;;;;11.12;100.00;99262.25;5093920;28;20564;-77
2023/10/27 10:27:06;;;;;;;3.38;3.13;;;;;;;11.12;100.00;99255.00;5078379;28;20072;-75
2023/10/27 10:29:33;;;;;;;3.47;3.28;;;;;;;11.15;100.00;99253.31;5112769;28;20136;-78
2023/10/27 10:32:32;;;;;;;3.40;3.20;;;;;;;11.20;100.00;99261.31;5112153;28;20671;-77
2023/10/27 10:35:19;;;;;;;3.70;3.40;;;;;;;11.23;100.00;99256.94;5099079;28;20071;-75
2023/10/27 10:37:46;;;;;;;3.72;3.50;;;;;;;11.24;100.00;99261.81;5094765;28;20052;-76
2023/10/27 10:40:23;;;;;;;3.50;3.30;;;;;;;11.25;100.00;99260.59;5114162;27;20044;-76
2023/10/27 10:43:23;;;;;;;3.00;2.80;;;;;;;11.24;100.00;99256.47;5112925;27;20119;-76
2023/10/27 10:45:56;;;;;;;2.83;2.50;;;;;;;11.22;100.00;99256.22;5113514;28;20537;-79
2023/10/27 10:48:28;;;;;;;3.15;2.95;;;;;;;11.22;100.00;99258.16;5111630;28;20044;-79
2023/10/27 10:50:59;;;;;;;3.17;2.97;;;;;;;11.20;100.00;99260.56;5113993;27;20044;-80
2023/10/27 10:53:25;;;;;;;5.63;3.55;;;;;;;11.21;100.00;99268.09;5113311;27;20102;-79
2023/10/27 10:55:59;;;;;;;3.67;3.38;;;;;;;11.20;100.00;99255.97;5110833;27;20125;-78
2023/10/27 10:58:28;;;;;;;3.70;3.40;;;;;;;11.19;100.00;99259.16;5094539;28;20071;-79
2023/10/27 11:00:56;;;;;;;3.35;3.15;;;;;;;11.21;100.00;99262.03;5091612;28;20048;-80
2023/10/27 11:03:25;;;;;;;3.58;3.33;;;;;;;11.24;100.00;99259.13;5092474;28;20437;-80
2023/10/27 11:05:55;;;;;;;3.47;3.17;;;;;;;11.25;100.00;99260.59;5092689;28;20584;-79
2023/10/27 11:08:27;;;;;;;3.47;3.28;;;;;;;11.25;100.00;99257.94;5092373;28;20044;-79
2023/10/27 11:11:03;;;;;;;;;;;;;;;11.27;100.00;99254.78;5093236;28;20036;-79
2023/10/27 11:13:31;;;;;;;5.20;3.50;;;;;;;11.26;100.00;99248.00;5092317;28;20013;-80
2023/10/27 11:16:00;;;;;;;3.13;3.00;;;;;;;11.24;100.00;99253.81;5092765;28;20505;-80
2023/10/27 11:18:28;;;;;;;3.63;3.42;;;;;;;11.27;100.00;99257.44;5108676;28;20040;-80
2023/10/27 11:20:54;;;;;;;4.10;3.80;;;;;;;11.28;100.00;99253.59;5113299;27;20047;-80
2023/10/27 11:23:26;;;;;;;4.13;3.83;;;;;;;11.28;100.00;99256.25;5112616;27;20103;-79
2023/10/27 11:26:02;;;;;;;4.90;3.83;;;;;;;11.25;100.00;99252.59;5112879;27;20040;-79
2023/10/27 11:28:29;;;;;;;3.80;3.53;;;;;;;11.25;100.00;99257.94;5112944;27;20238;-79